sensor_id;sensor_type;location;lat;lon;timestamp;temperature;humidity
10873;DHT22;34586;53.616;10.032;2023-03-01T00:01:10;0.80;1.00
10873;DHT22;34586;53.616;10.032;2023-03-01T00:03:37;0.90;1.00
10873;DHT22;34586;53.616;10.032;2023-03-01T00:06:03;1.00;1.00
10873;DHT22;34586;53.616;10.032;2023-03-01T00:08:28;1.00;1.00
10873;DHT22;34586;53.616;10.032;2023-03-01T00:11:18;1.00;1.00
10873;DHT22;34586;53.616;10.032;2023-03-01T00:13:45;1.00;1.00
10873;DHT22;34586;53.616;10.032;2023-03-01T00:16:15;1.10;1.00
10873;DHT22;34586;53.616;10.032;2023-03-01T00:18:40;1.00;1.00
10873;DHT22;34586;53.616;10.032;2023-03-01T00:21:06;1.00;1.00
10873;DHT22;34586;53.616;10.032;2023-03-01T00:23:33;0.90;1.00
10873;DHT22;34586;53.616;10.032;2023-03-01T00:25:59;0.90;1.00
10873;DHT22;34586;53.616;10.032;2023-03-01T00:28:25;0.90;1.00
10873;DHT22;34586;53.616;10.032;2023-03-01T00:30:50;0.80;1.00
10873;DHT22;34586;53.616;10.032;2023-03-01T00:33:16;0.90;1.00
10873;DHT22;34586;53.616;10.032;2023-03-01T00:35:41;0.80;1.00
10873;DHT22;34586;53.616;10.032;2023-03-01T00:38:07;0.70;1.00
10873;DHT22;34586;53.616;10.032;2023-03-01T00:40:34;0.70;1.00
10873;DHT22;34586;53.616;10.032;2023-03-01T00:43:01;0.60;1.00
10873;DHT22;34586;53.616;10.032;2023-03-01T00:45:27;0.60;1.00
10873;DHT22;34586;53.616;10.032;2023-03-01T00:47:53;0.50;1.00
10873;DHT22;34586;53.616;10.032;2023-03-01T00:50:20;0.50;1.00
10873;DHT22;34586;53.616;10.032;2023-03-01T00:52:46;0.50;1.00
10873;DHT22;34586;53.616;10.032;2023-03-01T00:55:11;0.50;1.00
10873;DHT22;34586;53.616;10.032;2023-03-01T00:57:37;0.50;1.00
10873;DHT22;34586;53.616;10.032;2023-03-01T01:00:06;0.40;1.00
10873;DHT22;34586;53.616;10.032;2023-03-01T01:02:33;0.40;1.00
10873;DHT22;34586;53.616;10.032;2023-03-01T01:04:59;0.40;1.00
10873;DHT22;34586;53.616;10.032;2023-03-01T01:07:24;0.40;3.70
10873;DHT22;34586;53.616;10.032;2023-03-01T01:09:50;0.50;1.00
10873;DHT22;34586;53.616;10.032;2023-03-01T01:12:16;0.40;1.00
10873;DHT22;34586;53.616;10.032;2023-03-01T01:14:41;0.40;1.00
10873;DHT22;34586;53.616;10.032;2023-03-01T01:17:07;0.40;1.00
10873;DHT22;34586;53.616;10.032;2023-03-01T01:19:33;0.40;1.00
10873;DHT22;34586;53.616;10.032;2023-03-01T01:21:58;0.40;1.00
10873;DHT22;34586;53.616;10.032;2023-03-01T01:24:24;0.50;1.00
10873;DHT22;34586;53.616;10.032;2023-03-01T01:26:49;0.50;1.00
10873;DHT22;34586;53.616;10.032;2023-03-01T01:29:15;0.50;1.00
10873;DHT22;34586;53.616;10.032;2023-03-01T01:31:42;0.50;1.00
10873;DHT22;34586;53.616;10.032;2023-03-01T01:34:12;0.50;1.00
10873;DHT22;34586;53.616;10.032;2023-03-01T01:36:38;0.50;1.00
10873;DHT22;34586;53.616;10.032;2023-03-01T01:39:04;0.50;1.00
10873;DHT22;34586;53.616;10.032;2023-03-01T01:41:30;0.50;1.00
10873;DHT22;34586;53.616;10.032;2023-03-01T01:47:01;0.40;1.00
10873;DHT22;34586;53.616;10.032;2023-03-01T01:49:38;0.40;1.00
10873;DHT22;34586;53.616;10.032;2023-03-01T01:54:39;0.50;1.00
10873;DHT22;34586;53.616;10.032;2023-03-01T01:57:09;0.40;1.00
10873;DHT22;34586;53.616;10.032;2023-03-01T01:59:37;0.50;1.00
10873;DHT22;34586;53.616;10.032;2023-03-01T02:02:03;0.50;1.00
10873;DHT22;34586;53.616;10.032;2023-03-01T02:04:31;0.50;1.00
10873;DHT22;34586;53.616;10.032;2023-03-01T02:07:17;0.50;1.00
10873;DHT22;34586;53.616;10.032;2023-03-01T02:09:49;0.50;1.00
10873;DHT22;34586;53.616;10.032;2023-03-01T02:12:21;0.50;1.00
10873;DHT22;34586;53.616;10.032;2023-03-01T02:14:48;0.50;1.00
10873;DHT22;34586;53.616;10.032;2023-03-01T02:17:16;0.40;1.00
10873;DHT22;34586;53.616;10.032;2023-03-01T02:22:26;0.40;1.00
10873;DHT22;34586;53.616;10.032;2023-03-01T02:27:40;0.30;1.00
10873;DHT22;34586;53.616;10.032;2023-03-01T02:30:10;0.30;1.00
10873;DHT22;34586;53.616;10.032;2023-03-01T02:32:41;0.40;1.00
10873;DHT22;34586;53.616;10.032;2023-03-01T02:35:10;0.40;1.00
10873;DHT22;34586;53.616;10.032;2023-03-01T02:37:37;0.40;1.00
10873;DHT22;34586;53.616;10.032;2023-03-01T02:40:07;0.40;1.00
10873;DHT22;34586;53.616;10.032;2023-03-01T02:42:43;0.40;1.00
10873;DHT22;34586;53.616;10.032;2023-03-01T02:45:10;0.40;1.00
10873;DHT22;34586;53.616;10.032;2023-03-01T02:47:36;0.30;1.00
10873;DHT22;34586;53.616;10.032;2023-03-01T02:50:02;0.40;1.00
10873;DHT22;34586;53.616;10.032;2023-03-01T02:52:40;0.40;1.00
10873;DHT22;34586;53.616;10.032;2023-03-01T02:55:13;0.40;1.00
10873;DHT22;34586;53.616;10.032;2023-03-01T02:57:44;0.40;1.00
10873;DHT22;34586;53.616;10.032;2023-03-01T03:00:17;0.50;1.00
10873;DHT22;34586;53.616;10.032;2023-03-01T03:02:47;0.40;1.00
10873;DHT22;34586;53.616;10.032;2023-03-01T03:05:17;0.50;1.00
10873;DHT22;34586;53.616;10.032;2023-03-01T03:07:44;0.40;1.00
10873;DHT22;34586;53.616;10.032;2023-03-01T03:10:16;0.50;1.00
10873;DHT22;34586;53.616;10.032;2023-03-01T03:12:48;0.50;1.00
10873;DHT22;34586;53.616;10.032;2023-03-01T03:15:14;0.50;1.00
10873;DHT22;34586;53.616;10.032;2023-03-01T03:17:41;0.50;1.00
10873;DHT22;34586;53.616;10.032;2023-03-01T03:20:09;0.50;1.00
10873;DHT22;34586;53.616;10.032;2023-03-01T03:22:38;0.50;1.00
10873;DHT22;34586;53.616;10.032;2023-03-01T03:25:06;0.50;1.00
10873;DHT22;34586;53.616;10.032;2023-03-01T03:27:40;0.40;1.00
10873;DHT22;34586;53.616;10.032;2023-03-01T03:30:07;0.40;1.00
10873;DHT22;34586;53.616;10.032;2023-03-01T03:32:38;0.40;1.00
10873;DHT22;34586;53.616;10.032;2023-03-01T03:35:05;0.40;1.00
10873;DHT22;34586;53.616;10.032;2023-03-01T03:37:39;0.50;1.00
10873;DHT22;34586;53.616;10.032;2023-03-01T03:40:24;0.50;1.00
10873;DHT22;34586;53.616;10.032;2023-03-01T03:42:49;0.60;1.00
10873;DHT22;34586;53.616;10.032;2023-03-01T03:45:16;0.70;1.00
10873;DHT22;34586;53.616;10.032;2023-03-01T03:47:42;0.70;1.00
10873;DHT22;34586;53.616;10.032;2023-03-01T03:50:09;0.80;1.00
10873;DHT22;34586;53.616;10.032;2023-03-01T03:52:35;0.90;1.00
10873;DHT22;34586;53.616;10.032;2023-03-01T03:55:01;0.90;1.00
10873;DHT22;34586;53.616;10.032;2023-03-01T03:57:26;0.90;1.00
10873;DHT22;34586;53.616;10.032;2023-03-01T03:59:52;1.00;1.00
10873;DHT22;34586;53.616;10.032;2023-03-01T04:02:17;1.00;1.00
10873;DHT22;34586;53.616;10.032;2023-03-01T04:04:48;1.10;1.00
10873;DHT22;34586;53.616;10.032;2023-03-01T04:07:15;1.10;1.00
10873;DHT22;34586;53.616;10.032;2023-03-01T04:09:42;1.20;1.00
10873;DHT22;34586;53.616;10.032;2023-03-01T04:12:08;1.20;1.00
10873;DHT22;34586;53.616;10.032;2023-03-01T04:14:33;1.30;1.00
10873;DHT22;34586;53.616;10.032;2023-03-01T04:16:59;1.30;1.00
10873;DHT22;34586;53.616;10.032;2023-03-01T04:19:25;1.30;1.00
10873;DHT22;34586;53.616;10.032;2023-03-01T04:21:52;1.40;1.00
10873;DHT22;34586;53.616;10.032;2023-03-01T04:24:18;1.40;1.00
10873;DHT22;34586;53.616;10.032;2023-03-01T04:26:43;1.40;1.00
10873;DHT22;34586;53.616;10.032;2023-03-01T04:29:09;1.40;1.00
10873;DHT22;34586;53.616;10.032;2023-03-01T04:31:35;1.50;1.00
10873;DHT22;34586;53.616;10.032;2023-03-01T04:34:01;1.50;1.00
10873;DHT22;34586;53.616;10.032;2023-03-01T04:36:29;1.50;1.00
10873;DHT22;34586;53.616;10.032;2023-03-01T04:38:55;1.60;1.00
10873;DHT22;34586;53.616;10.032;2023-03-01T04:41:23;1.60;1.00
10873;DHT22;34586;53.616;10.032;2023-03-01T04:43:49;1.60;1.00
10873;DHT22;34586;53.616;10.032;2023-03-01T04:46:18;1.60;1.00
10873;DHT22;34586;53.616;10.032;2023-03-01T04:48:44;1.60;1.00
10873;DHT22;34586;53.616;10.032;2023-03-01T04:51:11;1.60;1.00
10873;DHT22;34586;53.616;10.032;2023-03-01T04:53:39;1.60;1.00
10873;DHT22;34586;53.616;10.032;2023-03-01T04:56:05;1.70;1.00
10873;DHT22;34586;53.616;10.032;2023-03-01T04:58:31;1.70;1.00
10873;DHT22;34586;53.616;10.032;2023-03-01T05:00:57;1.70;1.00
10873;DHT22;34586;53.616;10.032;2023-03-01T05:03:22;1.70;1.00
10873;DHT22;34586;53.616;10.032;2023-03-01T05:05:50;1.80;1.00
10873;DHT22;34586;53.616;10.032;2023-03-01T05:08:16;1.80;1.00
10873;DHT22;34586;53.616;10.032;2023-03-01T05:10:52;1.90;1.00
10873;DHT22;34586;53.616;10.032;2023-03-01T05:13:19;1.90;1.00
10873;DHT22;34586;53.616;10.032;2023-03-01T05:15:54;1.90;1.00
10873;DHT22;34586;53.616;10.032;2023-03-01T05:18:20;1.90;99.90
10873;DHT22;34586;53.616;10.032;2023-03-01T05:20:46;2.00;1.00
10873;DHT22;34586;53.616;10.032;2023-03-01T05:23:12;2.00;1.00
10873;DHT22;34586;53.616;10.032;2023-03-01T05:25:38;1.90;99.90
10873;DHT22;34586;53.616;10.032;2023-03-01T05:28:06;2.00;99.90
10873;DHT22;34586;53.616;10.032;2023-03-01T05:30:33;2.00;1.00
10873;DHT22;34586;53.616;10.032;2023-03-01T05:32:59;2.10;99.90
10873;DHT22;34586;53.616;10.032;2023-03-01T05:35:25;2.10;1.00
10873;DHT22;34586;53.616;10.032;2023-03-01T05:37:52;2.10;1.00
10873;DHT22;34586;53.616;10.032;2023-03-01T05:40:20;2.10;1.00
10873;DHT22;34586;53.616;10.032;2023-03-01T05:42:48;2.10;1.00
10873;DHT22;34586;53.616;10.032;2023-03-01T05:45:15;2.10;1.00
10873;DHT22;34586;53.616;10.032;2023-03-01T05:47:42;2.20;1.00
10873;DHT22;34586;53.616;10.032;2023-03-01T05:50:17;2.20;99.90
10873;DHT22;34586;53.616;10.032;2023-03-01T05:52:51;1.70;76.00
10873;DHT22;34586;53.616;10.032;2023-03-01T05:55:19;2.20;1.00
10873;DHT22;34586;53.616;10.032;2023-03-01T05:57:45;2.20;1.00
10873;DHT22;34586;53.616;10.032;2023-03-01T06:00:11;2.20;94.20
10873;DHT22;34586;53.616;10.032;2023-03-01T06:02:38;2.20;1.00
10873;DHT22;34586;53.616;10.032;2023-03-01T06:05:05;2.20;1.00
10873;DHT22;34586;53.616;10.032;2023-03-01T06:07:31;2.20;72.20
10873;DHT22;34586;53.616;10.032;2023-03-01T06:09:57;2.10;59.60
10873;DHT22;34586;53.616;10.032;2023-03-01T06:12:23;2.10;1.00
10873;DHT22;34586;53.616;10.032;2023-03-01T06:14:48;2.00;1.00
10873;DHT22;34586;53.616;10.032;2023-03-01T06:17:14;2.00;1.00
10873;DHT22;34586;53.616;10.032;2023-03-01T06:19:39;1.90;42.70
10873;DHT22;34586;53.616;10.032;2023-03-01T06:22:05;1.90;99.90
10873;DHT22;34586;53.616;10.032;2023-03-01T06:24:31;1.90;99.90
10873;DHT22;34586;53.616;10.032;2023-03-01T06:26:56;1.90;99.90
10873;DHT22;34586;53.616;10.032;2023-03-01T06:29:22;2.00;47.30
10873;DHT22;34586;53.616;10.032;2023-03-01T06:31:48;2.00;1.00
10873;DHT22;34586;53.616;10.032;2023-03-01T06:34:14;2.10;20.60
10873;DHT22;34586;53.616;10.032;2023-03-01T06:36:40;2.10;99.90
10873;DHT22;34586;53.616;10.032;2023-03-01T06:39:06;2.10;27.90
10873;DHT22;34586;53.616;10.032;2023-03-01T06:41:32;2.20;1.00
10873;DHT22;34586;53.616;10.032;2023-03-01T06:43:59;2.10;99.90
10873;DHT22;34586;53.616;10.032;2023-03-01T06:46:25;2.30;1.00
10873;DHT22;34586;53.616;10.032;2023-03-01T06:48:50;2.30;99.90
10873;DHT22;34586;53.616;10.032;2023-03-01T06:51:16;2.40;99.90
10873;DHT22;34586;53.616;10.032;2023-03-01T06:53:42;2.40;99.90
10873;DHT22;34586;53.616;10.032;2023-03-01T06:56:07;2.60;1.00
10873;DHT22;34586;53.616;10.032;2023-03-01T06:58:33;2.60;1.00
10873;DHT22;34586;53.616;10.032;2023-03-01T07:00:58;2.50;99.90
10873;DHT22;34586;53.616;10.032;2023-03-01T07:03:24;2.60;1.00
10873;DHT22;34586;53.616;10.032;2023-03-01T07:05:50;2.70;99.90
10873;DHT22;34586;53.616;10.032;2023-03-01T07:08:19;2.70;43.30
10873;DHT22;34586;53.616;10.032;2023-03-01T07:10:45;2.70;99.90
10873;DHT22;34586;53.616;10.032;2023-03-01T07:13:10;3.50;1.00
10873;DHT22;34586;53.616;10.032;2023-03-01T07:15:36;2.90;99.90
10873;DHT22;34586;53.616;10.032;2023-03-01T07:18:02;2.90;99.90
10873;DHT22;34586;53.616;10.032;2023-03-01T07:20:28;2.90;1.00
10873;DHT22;34586;53.616;10.032;2023-03-01T07:22:54;2.90;1.00
10873;DHT22;34586;53.616;10.032;2023-03-01T07:25:20;3.00;99.90
10873;DHT22;34586;53.616;10.032;2023-03-01T07:27:53;3.00;99.90
10873;DHT22;34586;53.616;10.032;2023-03-01T07:30:20;3.00;1.00
10873;DHT22;34586;53.616;10.032;2023-03-01T07:32:46;3.10;1.00
10873;DHT22;34586;53.616;10.032;2023-03-01T07:35:11;3.10;1.00
10873;DHT22;34586;53.616;10.032;2023-03-01T07:37:37;3.10;99.90
10873;DHT22;34586;53.616;10.032;2023-03-01T07:40:03;3.10;1.00
10873;DHT22;34586;53.616;10.032;2023-03-01T07:42:29;3.10;99.90
10873;DHT22;34586;53.616;10.032;2023-03-01T07:44:54;3.10;99.90
10873;DHT22;34586;53.616;10.032;2023-03-01T07:47:20;3.10;99.90
10873;DHT22;34586;53.616;10.032;2023-03-01T07:49:45;3.10;1.00
10873;DHT22;34586;53.616;10.032;2023-03-01T07:52:11;3.10;1.00
10873;DHT22;34586;53.616;10.032;2023-03-01T07:54:37;3.10;1.00
10873;DHT22;34586;53.616;10.032;2023-03-01T07:57:03;3.20;1.00
10873;DHT22;34586;53.616;10.032;2023-03-01T07:59:28;3.20;99.90
10873;DHT22;34586;53.616;10.032;2023-03-01T08:01:58;3.20;99.90
10873;DHT22;34586;53.616;10.032;2023-03-01T08:04:23;3.20;99.90
10873;DHT22;34586;53.616;10.032;2023-03-01T08:06:50;3.30;1.00
10873;DHT22;34586;53.616;10.032;2023-03-01T08:09:16;3.30;99.90
10873;DHT22;34586;53.616;10.032;2023-03-01T08:11:42;3.30;1.00
10873;DHT22;34586;53.616;10.032;2023-03-01T08:14:07;3.40;99.90
10873;DHT22;34586;53.616;10.032;2023-03-01T08:16:33;3.40;99.90
10873;DHT22;34586;53.616;10.032;2023-03-01T08:19:07;3.50;99.90
10873;DHT22;34586;53.616;10.032;2023-03-01T08:21:34;3.70;99.90
10873;DHT22;34586;53.616;10.032;2023-03-01T08:24:01;3.80;1.00
10873;DHT22;34586;53.616;10.032;2023-03-01T08:26:27;3.70;1.00
10873;DHT22;34586;53.616;10.032;2023-03-01T08:28:52;3.80;99.90
10873;DHT22;34586;53.616;10.032;2023-03-01T08:31:27;3.90;99.90
10873;DHT22;34586;53.616;10.032;2023-03-01T08:33:56;4.00;99.90
10873;DHT22;34586;53.616;10.032;2023-03-01T08:36:27;4.10;23.60
10873;DHT22;34586;53.616;10.032;2023-03-01T08:38:53;4.20;99.90
10873;DHT22;34586;53.616;10.032;2023-03-01T08:41:19;4.30;18.50
10873;DHT22;34586;53.616;10.032;2023-03-01T08:43:45;4.30;1.00
10873;DHT22;34586;53.616;10.032;2023-03-01T08:46:11;4.50;1.00
10873;DHT22;34586;53.616;10.032;2023-03-01T08:48:37;4.50;1.00
10873;DHT22;34586;53.616;10.032;2023-03-01T08:51:19;4.50;1.00
10873;DHT22;34586;53.616;10.032;2023-03-01T08:53:45;4.50;1.00
10873;DHT22;34586;53.616;10.032;2023-03-01T08:56:11;4.40;99.90
10873;DHT22;34586;53.616;10.032;2023-03-01T08:58:37;4.40;99.90
10873;DHT22;34586;53.616;10.032;2023-03-01T09:01:12;4.30;1.00
10873;DHT22;34586;53.616;10.032;2023-03-01T09:03:38;4.40;1.00
10873;DHT22;34586;53.616;10.032;2023-03-01T09:06:05;4.40;99.90
10873;DHT22;34586;53.616;10.032;2023-03-01T09:08:38;4.40;1.00
10873;DHT22;34586;53.616;10.032;2023-03-01T09:11:05;4.40;99.90
10873;DHT22;34586;53.616;10.032;2023-03-01T09:13:31;4.40;1.00
10873;DHT22;34586;53.616;10.032;2023-03-01T09:15:58;4.40;68.90
10873;DHT22;34586;53.616;10.032;2023-03-01T09:18:24;4.50;99.90
10873;DHT22;34586;53.616;10.032;2023-03-01T09:20:49;4.40;99.90
10873;DHT22;34586;53.616;10.032;2023-03-01T09:23:15;4.40;1.00
10873;DHT22;34586;53.616;10.032;2023-03-01T09:25:40;4.50;99.90
10873;DHT22;34586;53.616;10.032;2023-03-01T09:28:06;4.50;1.00
10873;DHT22;34586;53.616;10.032;2023-03-01T09:30:32;4.60;99.90
10873;DHT22;34586;53.616;10.032;2023-03-01T09:32:58;4.70;1.00
10873;DHT22;34586;53.616;10.032;2023-03-01T09:35:23;4.80;1.00
10873;DHT22;34586;53.616;10.032;2023-03-01T09:37:49;4.80;99.90
10873;DHT22;34586;53.616;10.032;2023-03-01T09:40:24;4.90;1.00
10873;DHT22;34586;53.616;10.032;2023-03-01T09:43:50;5.00;1.00
10873;DHT22;34586;53.616;10.032;2023-03-01T09:46:00;5.10;99.90
10873;DHT22;34586;53.616;10.032;2023-03-01T09:48:33;5.10;1.00
10873;DHT22;34586;53.616;10.032;2023-03-01T09:51:06;5.00;1.00
10873;DHT22;34586;53.616;10.032;2023-03-01T09:53:34;5.10;99.90
10873;DHT22;34586;53.616;10.032;2023-03-01T09:56:33;5.20;99.90
10873;DHT22;34586;53.616;10.032;2023-03-01T10:05:10;5.30;99.90
10873;DHT22;34586;53.616;10.032;2023-03-01T10:08:42;5.40;1.00
10873;DHT22;34586;53.616;10.032;2023-03-01T10:10:47;5.30;99.90
10873;DHT22;34586;53.616;10.032;2023-03-01T10:15:54;5.30;1.00
10873;DHT22;34586;53.616;10.032;2023-03-01T10:18:27;5.30;99.90
10873;DHT22;34586;53.616;10.032;2023-03-01T10:21:03;5.30;37.50
10873;DHT22;34586;53.616;10.032;2023-03-01T10:23:32;5.20;99.90
10873;DHT22;34586;53.616;10.032;2023-03-01T10:31:16;5.20;99.90
10873;DHT22;34586;53.616;10.032;2023-03-01T10:33:44;5.20;1.00
10873;DHT22;34586;53.616;10.032;2023-03-01T10:36:10;5.20;39.70
10873;DHT22;34586;53.616;10.032;2023-03-01T10:38:56;5.20;99.90
10873;DHT22;34586;53.616;10.032;2023-03-01T10:41:24;5.20;99.90
10873;DHT22;34586;53.616;10.032;2023-03-01T10:43:54;5.40;99.90
10873;DHT22;34586;53.616;10.032;2023-03-01T10:46:37;5.40;99.90
10873;DHT22;34586;53.616;10.032;2023-03-01T10:51:33;5.40;99.90
10873;DHT22;34586;53.616;10.032;2023-03-01T10:53:58;5.40;1.00
10873;DHT22;34586;53.616;10.032;2023-03-01T10:56:24;5.40;1.00
10873;DHT22;34586;53.616;10.032;2023-03-01T10:59:04;5.50;1.00
10873;DHT22;34586;53.616;10.032;2023-03-01T11:01:33;5.60;66.30
10873;DHT22;34586;53.616;10.032;2023-03-01T11:04:11;5.60;1.00
10873;DHT22;34586;53.616;10.032;2023-03-01T11:06:38;5.90;1.00
10873;DHT22;34586;53.616;10.032;2023-03-01T11:09:22;5.80;99.90
10873;DHT22;34586;53.616;10.032;2023-03-01T11:11:56;5.80;99.90
10873;DHT22;34586;53.616;10.032;2023-03-01T11:14:24;5.80;1.00
10873;DHT22;34586;53.616;10.032;2023-03-01T11:17:03;6.00;31.40
10873;DHT22;34586;53.616;10.032;2023-03-01T11:19:30;6.00;1.00
10873;DHT22;34586;53.616;10.032;2023-03-01T11:22:03;6.00;1.00
10873;DHT22;34586;53.616;10.032;2023-03-01T11:24:44;6.00;18.30
10873;DHT22;34586;53.616;10.032;2023-03-01T11:27:17;6.10;1.00
10873;DHT22;34586;53.616;10.032;2023-03-01T11:29:48;6.20;1.00
10873;DHT22;34586;53.616;10.032;2023-03-01T11:32:18;6.20;1.00
10873;DHT22;34586;53.616;10.032;2023-03-01T11:34:57;6.30;1.00
10873;DHT22;34586;53.616;10.032;2023-03-01T11:37:38;6.30;99.90
10873;DHT22;34586;53.616;10.032;2023-03-01T11:49:02;6.60;1.00
10873;DHT22;34586;53.616;10.032;2023-03-01T12:00:25;6.90;1.00
10873;DHT22;34586;53.616;10.032;2023-03-01T12:13:59;6.90;1.00
10873;DHT22;34586;53.616;10.032;2023-03-01T12:16:48;6.90;1.00
10873;DHT22;34586;53.616;10.032;2023-03-01T12:39:15;8.20;1.00
10873;DHT22;34586;53.616;10.032;2023-03-01T12:50:38;11.40;99.90
10873;DHT22;34586;53.616;10.032;2023-03-01T12:53:07;11.70;99.90
10873;DHT22;34586;53.616;10.032;2023-03-01T12:55:41;11.70;99.90
10873;DHT22;34586;53.616;10.032;2023-03-01T13:04:07;11.10;1.00
10873;DHT22;34586;53.616;10.032;2023-03-01T13:12:01;10.40;99.90
10873;DHT22;34586;53.616;10.032;2023-03-01T13:16:58;10.00;99.90
10873;DHT22;34586;53.616;10.032;2023-03-01T13:19:28;9.70;1.00
10873;DHT22;34586;53.616;10.032;2023-03-01T13:21:58;9.60;1.00
10873;DHT22;34586;53.616;10.032;2023-03-01T13:24:27;9.50;99.90
10873;DHT22;34586;53.616;10.032;2023-03-01T13:27:22;9.50;99.90
10873;DHT22;34586;53.616;10.032;2023-03-01T13:29:59;9.30;1.00
10873;DHT22;34586;53.616;10.032;2023-03-01T13:32:32;9.50;1.00
10873;DHT22;34586;53.616;10.032;2023-03-01T13:34:58;9.50;99.90
10873;DHT22;34586;53.616;10.032;2023-03-01T13:37:29;9.60;1.00
10873;DHT22;34586;53.616;10.032;2023-03-01T13:39:57;9.80;99.90
10873;DHT22;34586;53.616;10.032;2023-03-01T13:42:37;9.80;1.00
10873;DHT22;34586;53.616;10.032;2023-03-01T13:45:40;9.50;1.00
10873;DHT22;34586;53.616;10.032;2023-03-01T13:48:18;9.60;99.90
10873;DHT22;34586;53.616;10.032;2023-03-01T13:50:53;9.70;99.90
10873;DHT22;34586;53.616;10.032;2023-03-01T13:53:23;9.60;22.50
10873;DHT22;34586;53.616;10.032;2023-03-01T13:55:52;9.50;99.90
10873;DHT22;34586;53.616;10.032;2023-03-01T14:01:00;9.40;99.90
10873;DHT22;34586;53.616;10.032;2023-03-01T14:03:27;9.30;99.90
10873;DHT22;34586;53.616;10.032;2023-03-01T14:06:13;9.40;1.00
10873;DHT22;34586;53.616;10.032;2023-03-01T14:08:38;9.30;1.00
10873;DHT22;34586;53.616;10.032;2023-03-01T14:17:11;9.10;99.90
10873;DHT22;34586;53.616;10.032;2023-03-01T14:19:39;8.90;1.00
10873;DHT22;34586;53.616;10.032;2023-03-01T14:22:19;8.90;1.00
10873;DHT22;34586;53.616;10.032;2023-03-01T14:24:50;8.90;95.10
10873;DHT22;34586;53.616;10.032;2023-03-01T14:27:17;8.80;1.00
10873;DHT22;34586;53.616;10.032;2023-03-01T14:29:43;8.70;1.00
10873;DHT22;34586;53.616;10.032;2023-03-01T14:32:20;8.70;1.00
10873;DHT22;34586;53.616;10.032;2023-03-01T14:34:49;8.70;1.00
10873;DHT22;34586;53.616;10.032;2023-03-01T14:37:25;8.60;99.90
10873;DHT22;34586;53.616;10.032;2023-03-01T14:39:51;8.60;1.00
10873;DHT22;34586;53.616;10.032;2023-03-01T14:42:18;8.60;1.00
10873;DHT22;34586;53.616;10.032;2023-03-01T14:44:47;8.60;1.00
10873;DHT22;34586;53.616;10.032;2023-03-01T14:47:19;8.60;99.90
10873;DHT22;34586;53.616;10.032;2023-03-01T14:49:45;8.60;99.90
10873;DHT22;34586;53.616;10.032;2023-03-01T14:52:42;8.50;47.80
10873;DHT22;34586;53.616;10.032;2023-03-01T14:55:40;8.40;47.30
10873;DHT22;34586;53.616;10.032;2023-03-01T14:58:12;8.50;99.90
10873;DHT22;34586;53.616;10.032;2023-03-01T15:00:39;8.50;53.80
10873;DHT22;34586;53.616;10.032;2023-03-01T15:03:14;8.50;99.90
10873;DHT22;34586;53.616;10.032;2023-03-01T15:05:43;8.40;99.90
10873;DHT22;34586;53.616;10.032;2023-03-01T15:08:21;8.40;99.90
10873;DHT22;34586;53.616;10.032;2023-03-01T15:13:44;8.30;1.00
10873;DHT22;34586;53.616;10.032;2023-03-01T15:16:31;8.20;86.40
10873;DHT22;34586;53.616;10.032;2023-03-01T15:19:00;8.10;1.00
10873;DHT22;34586;53.616;10.032;2023-03-01T15:21:32;8.20;97.70
10873;DHT22;34586;53.616;10.032;2023-03-01T15:24:05;7.90;99.90
10873;DHT22;34586;53.616;10.032;2023-03-01T15:26:42;7.90;99.90
10873;DHT22;34586;53.616;10.032;2023-03-01T15:29:17;7.80;99.90
10873;DHT22;34586;53.616;10.032;2023-03-01T15:31:54;7.70;99.90
10873;DHT22;34586;53.616;10.032;2023-03-01T15:34:21;7.70;99.90
10873;DHT22;34586;53.616;10.032;2023-03-01T15:36:48;7.60;99.90
10873;DHT22;34586;53.616;10.032;2023-03-01T15:39:30;7.60;1.00
10873;DHT22;34586;53.616;10.032;2023-03-01T15:41:58;7.60;99.90
10873;DHT22;34586;53.616;10.032;2023-03-01T15:44:30;7.60;99.90
10873;DHT22;34586;53.616;10.032;2023-03-01T15:46:56;7.50;99.90
10873;DHT22;34586;53.616;10.032;2023-03-01T15:49:34;7.50;99.90
10873;DHT22;34586;53.616;10.032;2023-03-01T15:52:01;7.50;99.90
10873;DHT22;34586;53.616;10.032;2023-03-01T15:54:27;7.40;99.90
10873;DHT22;34586;53.616;10.032;2023-03-01T15:56:53;7.40;66.30
10873;DHT22;34586;53.616;10.032;2023-03-01T15:59:19;7.30;99.90
10873;DHT22;34586;53.616;10.032;2023-03-01T16:01:45;7.30;1.00
10873;DHT22;34586;53.616;10.032;2023-03-01T16:04:16;7.20;1.00
10873;DHT22;34586;53.616;10.032;2023-03-01T16:06:53;7.20;50.30
10873;DHT22;34586;53.616;10.032;2023-03-01T16:09:23;7.30;99.90
10873;DHT22;34586;53.616;10.032;2023-03-01T16:11:49;7.10;99.90
10873;DHT22;34586;53.616;10.032;2023-03-01T16:14:15;7.10;99.90
10873;DHT22;34586;53.616;10.032;2023-03-01T16:16:42;7.10;1.00
10873;DHT22;34586;53.616;10.032;2023-03-01T16:19:07;7.00;1.00
10873;DHT22;34586;53.616;10.032;2023-03-01T16:21:33;7.00;92.30
10873;DHT22;34586;53.616;10.032;2023-03-01T16:23:58;6.90;99.90
10873;DHT22;34586;53.616;10.032;2023-03-01T16:26:24;6.90;1.00
10873;DHT22;34586;53.616;10.032;2023-03-01T16:28:49;6.80;1.00
10873;DHT22;34586;53.616;10.032;2023-03-01T16:31:20;6.80;1.00
10873;DHT22;34586;53.616;10.032;2023-03-01T16:33:46;6.70;99.90
10873;DHT22;34586;53.616;10.032;2023-03-01T16:36:16;6.70;33.50
10873;DHT22;34586;53.616;10.032;2023-03-01T16:38:42;6.60;1.00
10873;DHT22;34586;53.616;10.032;2023-03-01T16:41:15;7.80;99.90
10873;DHT22;34586;53.616;10.032;2023-03-01T16:43:42;6.50;1.00
10873;DHT22;34586;53.616;10.032;2023-03-01T16:46:13;6.40;99.90
10873;DHT22;34586;53.616;10.032;2023-03-01T16:48:39;6.30;1.00
10873;DHT22;34586;53.616;10.032;2023-03-01T16:51:05;6.30;99.90
10873;DHT22;34586;53.616;10.032;2023-03-01T16:53:32;6.20;12.00
10873;DHT22;34586;53.616;10.032;2023-03-01T16:55:58;6.20;1.00
10873;DHT22;34586;53.616;10.032;2023-03-01T16:58:24;6.10;90.20
10873;DHT22;34586;53.616;10.032;2023-03-01T17:00:54;6.00;1.00
10873;DHT22;34586;53.616;10.032;2023-03-01T17:03:22;5.90;99.90
10873;DHT22;34586;53.616;10.032;2023-03-01T17:05:47;5.90;1.00
10873;DHT22;34586;53.616;10.032;2023-03-01T17:08:13;6.00;1.00
10873;DHT22;34586;53.616;10.032;2023-03-01T17:10:39;5.80;88.60
10873;DHT22;34586;53.616;10.032;2023-03-01T17:13:04;5.90;99.90
10873;DHT22;34586;53.616;10.032;2023-03-01T17:15:30;5.70;1.00
10873;DHT22;34586;53.616;10.032;2023-03-01T17:17:55;5.60;1.00
10873;DHT22;34586;53.616;10.032;2023-03-01T17:20:21;5.60;80.80
10873;DHT22;34586;53.616;10.032;2023-03-01T17:22:47;5.40;99.90
10873;DHT22;34586;53.616;10.032;2023-03-01T17:25:12;5.40;99.90
10873;DHT22;34586;53.616;10.032;2023-03-01T17:27:39;5.30;99.90
10873;DHT22;34586;53.616;10.032;2023-03-01T17:30:07;5.20;99.90
10873;DHT22;34586;53.616;10.032;2023-03-01T17:32:34;5.20;1.00
10873;DHT22;34586;53.616;10.032;2023-03-01T17:34:59;5.10;1.00
10873;DHT22;34586;53.616;10.032;2023-03-01T17:37:25;5.00;1.00
10873;DHT22;34586;53.616;10.032;2023-03-01T17:39:50;4.90;1.00
10873;DHT22;34586;53.616;10.032;2023-03-01T17:42:16;4.90;1.00